sensor_id;sensor_type;location;lat;lon;timestamp;P1;durP1;ratioP1;P2;durP2;ratioP2
38117;SDS011;23928;47.562;7.508;2022-11-15T00:01:14;9.33;;;6.87;;
38117;SDS011;23928;47.562;7.508;2022-11-15T00:03:42;9.33;;;6.93;;
38117;SDS011;23928;47.562;7.508;2022-11-15T00:06:08;9.17;;;6.87;;
38117;SDS011;23928;47.562;7.508;2022-11-15T00:08:34;10.90;;;8.07;;
38117;SDS011;23928;47.562;7.508;2022-11-15T00:11:00;13.20;;;7.47;;
38117;SDS011;23928;47.562;7.508;2022-11-15T00:13:27;11.57;;;8.33;;
38117;SDS011;23928;47.562;7.508;2022-11-15T00:15:55;10.60;;;8.20;;
38117;SDS011;23928;47.562;7.508;2022-11-15T00:18:23;10.73;;;7.67;;
38117;SDS011;23928;47.562;7.508;2022-11-15T00:20:49;11.07;;;8.37;;
38117;SDS011;23928;47.562;7.508;2022-11-15T00:23:14;14.13;;;9.20;;
38117;SDS011;23928;47.562;7.508;2022-11-15T00:25:40;11.00;;;8.30;;
38117;SDS011;23928;47.562;7.508;2022-11-15T00:28:06;10.73;;;7.70;;
38117;SDS011;23928;47.562;7.508;2022-11-15T00:30:31;11.10;;;7.50;;
38117;SDS011;23928;47.562;7.508;2022-11-15T00:33:00;13.37;;;7.30;;
38117;SDS011;23928;47.562;7.508;2022-11-15T00:35:33;14.30;;;7.10;;
38117;SDS011;23928;47.562;7.508;2022-11-15T00:37:59;8.63;;;6.67;;
38117;SDS011;23928;47.562;7.508;2022-11-15T00:40:25;10.00;;;7.00;;
38117;SDS011;23928;47.562;7.508;2022-11-15T00:42:51;7.97;;;6.47;;
38117;SDS011;23928;47.562;7.508;2022-11-15T00:45:17;7.77;;;6.43;;
38117;SDS011;23928;47.562;7.508;2022-11-15T00:47:46;10.87;;;7.07;;
38117;SDS011;23928;47.562;7.508;2022-11-15T00:50:12;9.73;;;6.53;;
38117;SDS011;23928;47.562;7.508;2022-11-15T00:52:37;14.33;;;7.50;;
38117;SDS011;23928;47.562;7.508;2022-11-15T00:55:03;9.33;;;6.63;;
38117;SDS011;23928;47.562;7.508;2022-11-15T00:57:29;10.47;;;7.07;;
38117;SDS011;23928;47.562;7.508;2022-11-15T00:59:55;10.90;;;6.27;;
38117;SDS011;23928;47.562;7.508;2022-11-15T01:02:20;10.10;;;6.03;;
38117;SDS011;23928;47.562;7.508;2022-11-15T01:04:46;8.60;;;6.00;;
38117;SDS011;23928;47.562;7.508;2022-11-15T01:07:12;7.03;;;5.10;;
38117;SDS011;23928;47.562;7.508;2022-11-15T01:09:38;9.53;;;6.27;;
38117;SDS011;23928;47.562;7.508;2022-11-15T01:12:03;8.73;;;5.93;;
38117;SDS011;23928;47.562;7.508;2022-11-15T01:14:29;9.30;;;6.17;;
38117;SDS011;23928;47.562;7.508;2022-11-15T01:16:55;9.53;;;5.43;;
38117;SDS011;23928;47.562;7.508;2022-11-15T01:19:22;10.37;;;6.30;;
38117;SDS011;23928;47.562;7.508;2022-11-15T01:21:50;8.73;;;6.00;;
38117;SDS011;23928;47.562;7.508;2022-11-15T01:24:16;10.00;;;5.90;;
38117;SDS011;23928;47.562;7.508;2022-11-15T01:26:42;8.77;;;6.10;;
38117;SDS011;23928;47.562;7.508;2022-11-15T01:29:08;9.03;;;6.30;;
38117;SDS011;23928;47.562;7.508;2022-11-15T01:31:33;10.93;;;5.70;;
38117;SDS011;23928;47.562;7.508;2022-11-15T01:33:59;8.37;;;5.63;;
38117;SDS011;23928;47.562;7.508;2022-11-15T01:36:24;7.03;;;5.50;;
38117;SDS011;23928;47.562;7.508;2022-11-15T01:38:53;7.87;;;5.90;;
38117;SDS011;23928;47.562;7.508;2022-11-15T01:41:22;8.10;;;5.40;;
38117;SDS011;23928;47.562;7.508;2022-11-15T01:43:53;10.20;;;5.87;;
38117;SDS011;23928;47.562;7.508;2022-11-15T01:46:25;7.03;;;5.43;;
38117;SDS011;23928;47.562;7.508;2022-11-15T01:48:52;8.10;;;5.53;;
38117;SDS011;23928;47.562;7.508;2022-11-15T01:51:20;7.00;;;5.20;;
38117;SDS011;23928;47.562;7.508;2022-11-15T01:53:49;6.33;;;4.87;;
38117;SDS011;23928;47.562;7.508;2022-11-15T01:56:22;9.00;;;6.00;;
38117;SDS011;23928;47.562;7.508;2022-11-15T01:58:50;12.07;;;6.47;;
38117;SDS011;23928;47.562;7.508;2022-11-15T02:01:17;8.03;;;6.10;;
38117;SDS011;23928;47.562;7.508;2022-11-15T02:03:48;10.67;;;6.80;;
38117;SDS011;23928;47.562;7.508;2022-11-15T02:06:15;9.17;;;5.93;;
38117;SDS011;23928;47.562;7.508;2022-11-15T02:08:41;7.83;;;5.73;;
38117;SDS011;23928;47.562;7.508;2022-11-15T02:11:08;5.27;;;4.77;;
38117;SDS011;23928;47.562;7.508;2022-11-15T02:13:35;7.27;;;5.40;;
38117;SDS011;23928;47.562;7.508;2022-11-15T02:18:37;9.70;;;5.93;;
38117;SDS011;23928;47.562;7.508;2022-11-15T02:21:52;8.43;;;5.77;;
38117;SDS011;23928;47.562;7.508;2022-11-15T02:30:14;9.53;;;5.77;;
38117;SDS011;23928;47.562;7.508;2022-11-15T02:32:47;9.37;;;5.07;;
38117;SDS011;23928;47.562;7.508;2022-11-15T02:38:22;8.13;;;5.23;;
38117;SDS011;23928;47.562;7.508;2022-11-15T02:43:32;9.43;;;5.80;;
38117;SDS011;23928;47.562;7.508;2022-11-15T02:46:34;8.10;;;6.23;;
38117;SDS011;23928;47.562;7.508;2022-11-15T02:49:34;8.83;;;6.30;;
38117;SDS011;23928;47.562;7.508;2022-11-15T02:52:02;11.43;;;6.70;;
38117;SDS011;23928;47.562;7.508;2022-11-15T02:54:29;8.83;;;6.73;;
38117;SDS011;23928;47.562;7.508;2022-11-15T02:57:15;8.53;;;6.20;;
38117;SDS011;23928;47.562;7.508;2022-11-15T03:02:42;9.43;;;5.83;;
38117;SDS011;23928;47.562;7.508;2022-11-15T03:08:31;8.17;;;6.43;;
38117;SDS011;23928;47.562;7.508;2022-11-15T03:11:09;7.37;;;5.97;;
38117;SDS011;23928;47.562;7.508;2022-11-15T03:19:14;8.97;;;6.03;;
38117;SDS011;23928;47.562;7.508;2022-11-15T03:21:42;7.97;;;5.87;;
38117;SDS011;23928;47.562;7.508;2022-11-15T03:24:10;8.13;;;6.60;;
38117;SDS011;23928;47.562;7.508;2022-11-15T03:26:39;8.13;;;6.00;;
38117;SDS011;23928;47.562;7.508;2022-11-15T03:29:09;8.90;;;6.27;;
38117;SDS011;23928;47.562;7.508;2022-11-15T03:31:44;8.43;;;6.63;;
38117;SDS011;23928;47.562;7.508;2022-11-15T03:34:16;8.83;;;6.57;;
38117;SDS011;23928;47.562;7.508;2022-11-15T03:36:52;7.57;;;5.60;;
38117;SDS011;23928;47.562;7.508;2022-11-15T03:39:18;12.43;;;6.43;;
38117;SDS011;23928;47.562;7.508;2022-11-15T03:41:56;8.07;;;5.90;;
38117;SDS011;23928;47.562;7.508;2022-11-15T03:50:03;9.93;;;6.60;;
38117;SDS011;23928;47.562;7.508;2022-11-15T03:52:33;9.77;;;5.97;;
38117;SDS011;23928;47.562;7.508;2022-11-15T03:55:00;7.80;;;5.67;;
38117;SDS011;23928;47.562;7.508;2022-11-15T03:57:27;9.70;;;6.23;;
38117;SDS011;23928;47.562;7.508;2022-11-15T03:59:53;8.30;;;5.47;;
38117;SDS011;23928;47.562;7.508;2022-11-15T04:02:19;10.20;;;6.63;;
38117;SDS011;23928;47.562;7.508;2022-11-15T04:04:45;10.20;;;6.83;;
38117;SDS011;23928;47.562;7.508;2022-11-15T04:07:10;9.53;;;6.37;;
38117;SDS011;23928;47.562;7.508;2022-11-15T04:09:36;7.23;;;5.57;;
38117;SDS011;23928;47.562;7.508;2022-11-15T04:12:20;6.53;;;5.80;;
38117;SDS011;23928;47.562;7.508;2022-11-15T04:15:03;7.00;;;5.33;;
38117;SDS011;23928;47.562;7.508;2022-11-15T04:20:14;7.60;;;5.37;;
38117;SDS011;23928;47.562;7.508;2022-11-15T04:23:00;8.03;;;5.03;;
38117;SDS011;23928;47.562;7.508;2022-11-15T04:25:46;6.43;;;5.23;;
38117;SDS011;23928;47.562;7.508;2022-11-15T04:28:15;7.53;;;5.53;;
38117;SDS011;23928;47.562;7.508;2022-11-15T04:30:41;7.43;;;5.93;;
38117;SDS011;23928;47.562;7.508;2022-11-15T04:33:07;8.07;;;5.27;;
38117;SDS011;23928;47.562;7.508;2022-11-15T04:35:32;7.43;;;5.73;;
38117;SDS011;23928;47.562;7.508;2022-11-15T04:37:58;7.17;;;5.70;;
38117;SDS011;23928;47.562;7.508;2022-11-15T04:40:24;6.03;;;5.30;;
38117;SDS011;23928;47.562;7.508;2022-11-15T04:42:50;6.83;;;5.40;;
38117;SDS011;23928;47.562;7.508;2022-11-15T04:45:16;5.90;;;4.77;;
38117;SDS011;23928;47.562;7.508;2022-11-15T04:47:44;9.03;;;6.40;;
38117;SDS011;23928;47.562;7.508;2022-11-15T04:50:11;6.73;;;5.63;;
38117;SDS011;23928;47.562;7.508;2022-11-15T04:52:41;8.30;;;5.60;;
38117;SDS011;23928;47.562;7.508;2022-11-15T04:55:09;6.60;;;5.87;;
38117;SDS011;23928;47.562;7.508;2022-11-15T04:57:35;7.43;;;6.07;;
38117;SDS011;23928;47.562;7.508;2022-11-15T05:00:05;9.33;;;6.23;;
38117;SDS011;23928;47.562;7.508;2022-11-15T05:02:32;9.60;;;5.90;;
38117;SDS011;23928;47.562;7.508;2022-11-15T05:05:16;10.50;;;6.90;;
38117;SDS011;23928;47.562;7.508;2022-11-15T05:07:42;7.77;;;5.90;;
38117;SDS011;23928;47.562;7.508;2022-11-15T05:10:08;6.00;;;5.20;;
38117;SDS011;23928;47.562;7.508;2022-11-15T05:12:34;5.57;;;4.80;;
38117;SDS011;23928;47.562;7.508;2022-11-15T05:15:00;7.47;;;5.30;;
38117;SDS011;23928;47.562;7.508;2022-11-15T05:17:25;7.00;;;5.17;;
38117;SDS011;23928;47.562;7.508;2022-11-15T05:19:51;8.37;;;5.53;;
38117;SDS011;23928;47.562;7.508;2022-11-15T05:22:17;6.47;;;5.30;;
38117;SDS011;23928;47.562;7.508;2022-11-15T05:24:43;7.10;;;5.70;;
38117;SDS011;23928;47.562;7.508;2022-11-15T05:27:08;7.07;;;5.57;;
38117;SDS011;23928;47.562;7.508;2022-11-15T05:29:34;10.50;;;5.97;;
38117;SDS011;23928;47.562;7.508;2022-11-15T05:31:59;14.20;;;7.50;;
38117;SDS011;23928;47.562;7.508;2022-11-15T05:34:25;16.83;;;8.07;;
38117;SDS011;23928;47.562;7.508;2022-11-15T05:36:51;22.10;;;10.00;;
38117;SDS011;23928;47.562;7.508;2022-11-15T05:39:18;20.60;;;10.43;;
38117;SDS011;23928;47.562;7.508;2022-11-15T05:41:48;15.20;;;7.80;;
38117;SDS011;23928;47.562;7.508;2022-11-15T05:44:18;8.40;;;5.70;;
38117;SDS011;23928;47.562;7.508;2022-11-15T05:46:46;12.47;;;7.40;;
38117;SDS011;23928;47.562;7.508;2022-11-15T05:49:13;8.20;;;4.93;;
38117;SDS011;23928;47.562;7.508;2022-11-15T05:51:43;9.20;;;5.47;;
38117;SDS011;23928;47.562;7.508;2022-11-15T05:54:12;9.10;;;6.20;;
38117;SDS011;23928;47.562;7.508;2022-11-15T05:56:38;9.93;;;6.87;;
38117;SDS011;23928;47.562;7.508;2022-11-15T05:59:04;11.37;;;7.00;;
38117;SDS011;23928;47.562;7.508;2022-11-15T06:01:32;10.77;;;7.07;;
38117;SDS011;23928;47.562;7.508;2022-11-15T06:03:57;10.27;;;7.10;;
38117;SDS011;23928;47.562;7.508;2022-11-15T06:06:23;12.13;;;7.57;;
38117;SDS011;23928;47.562;7.508;2022-11-15T06:08:48;14.93;;;8.90;;
38117;SDS011;23928;47.562;7.508;2022-11-15T06:11:14;12.90;;;8.10;;
38117;SDS011;23928;47.562;7.508;2022-11-15T06:13:40;12.77;;;8.33;;
38117;SDS011;23928;47.562;7.508;2022-11-15T06:16:05;14.83;;;8.60;;
38117;SDS011;23928;47.562;7.508;2022-11-15T06:18:32;12.23;;;7.00;;
38117;SDS011;23928;47.562;7.508;2022-11-15T06:20:59;16.37;;;9.10;;
38117;SDS011;23928;47.562;7.508;2022-11-15T06:23:25;14.13;;;8.70;;
38117;SDS011;23928;47.562;7.508;2022-11-15T06:25:51;18.47;;;10.30;;
38117;SDS011;23928;47.562;7.508;2022-11-15T06:28:16;16.30;;;10.37;;
38117;SDS011;23928;47.562;7.508;2022-11-15T06:30:42;16.30;;;10.77;;
38117;SDS011;23928;47.562;7.508;2022-11-15T06:33:07;14.80;;;10.50;;
38117;SDS011;23928;47.562;7.508;2022-11-15T06:35:34;12.70;;;9.50;;
38117;SDS011;23928;47.562;7.508;2022-11-15T06:38:04;13.13;;;8.87;;
38117;SDS011;23928;47.562;7.508;2022-11-15T06:40:33;11.27;;;8.00;;
38117;SDS011;23928;47.562;7.508;2022-11-15T06:43:00;11.87;;;8.77;;
38117;SDS011;23928;47.562;7.508;2022-11-15T06:45:26;11.30;;;8.93;;
38117;SDS011;23928;47.562;7.508;2022-11-15T06:47:52;12.27;;;8.20;;
38117;SDS011;23928;47.562;7.508;2022-11-15T06:50:17;15.80;;;10.23;;
38117;SDS011;23928;47.562;7.508;2022-11-15T06:52:43;15.53;;;10.93;;
38117;SDS011;23928;47.562;7.508;2022-11-15T06:55:09;13.83;;;9.97;;
38117;SDS011;23928;47.562;7.508;2022-11-15T06:57:35;14.43;;;9.27;;
38117;SDS011;23928;47.562;7.508;2022-11-15T07:00:02;13.37;;;9.13;;
38117;SDS011;23928;47.562;7.508;2022-11-15T07:02:29;9.90;;;7.80;;
38117;SDS011;23928;47.562;7.508;2022-11-15T07:04:55;12.07;;;8.10;;
38117;SDS011;23928;47.562;7.508;2022-11-15T07:07:21;13.57;;;8.43;;
38117;SDS011;23928;47.562;7.508;2022-11-15T07:09:46;10.83;;;8.60;;
38117;SDS011;23928;47.562;7.508;2022-11-15T07:12:12;12.63;;;8.80;;
38117;SDS011;23928;47.562;7.508;2022-11-15T07:14:38;10.47;;;8.23;;
38117;SDS011;23928;47.562;7.508;2022-11-15T07:17:04;10.90;;;8.63;;
38117;SDS011;23928;47.562;7.508;2022-11-15T07:19:30;12.43;;;8.90;;
38117;SDS011;23928;47.562;7.508;2022-11-15T07:21:56;13.13;;;8.77;;
38117;SDS011;23928;47.562;7.508;2022-11-15T07:24:21;12.07;;;8.57;;
38117;SDS011;23928;47.562;7.508;2022-11-15T07:26:47;9.43;;;7.90;;
38117;SDS011;23928;47.562;7.508;2022-11-15T07:29:12;10.93;;;7.93;;
38117;SDS011;23928;47.562;7.508;2022-11-15T07:31:38;11.80;;;8.23;;
38117;SDS011;23928;47.562;7.508;2022-11-15T07:34:04;10.50;;;7.40;;
38117;SDS011;23928;47.562;7.508;2022-11-15T07:36:29;8.83;;;7.33;;
38117;SDS011;23928;47.562;7.508;2022-11-15T07:38:55;10.90;;;8.47;;
38117;SDS011;23928;47.562;7.508;2022-11-15T07:41:21;12.27;;;8.73;;
38117;SDS011;23928;47.562;7.508;2022-11-15T07:43:46;10.30;;;8.50;;
38117;SDS011;23928;47.562;7.508;2022-11-15T07:46:12;12.20;;;9.60;;
38117;SDS011;23928;47.562;7.508;2022-11-15T07:48:38;11.93;;;9.57;;
38117;SDS011;23928;47.562;7.508;2022-11-15T07:51:05;13.03;;;9.83;;
38117;SDS011;23928;47.562;7.508;2022-11-15T07:53:31;13.93;;;9.13;;
38117;SDS011;23928;47.562;7.508;2022-11-15T07:55:57;15.60;;;9.33;;
38117;SDS011;23928;47.562;7.508;2022-11-15T07:58:22;11.90;;;8.97;;
38117;SDS011;23928;47.562;7.508;2022-11-15T08:00:48;14.03;;;9.03;;
38117;SDS011;23928;47.562;7.508;2022-11-15T08:03:14;14.83;;;10.10;;
38117;SDS011;23928;47.562;7.508;2022-11-15T08:05:41;14.53;;;9.23;;
38117;SDS011;23928;47.562;7.508;2022-11-15T08:08:08;13.27;;;9.73;;
38117;SDS011;23928;47.562;7.508;2022-11-15T08:10:35;12.37;;;8.73;;
38117;SDS011;23928;47.562;7.508;2022-11-15T08:13:03;16.53;;;9.40;;
38117;SDS011;23928;47.562;7.508;2022-11-15T08:15:33;13.27;;;9.80;;
38117;SDS011;23928;47.562;7.508;2022-11-15T08:18:00;15.27;;;10.40;;
38117;SDS011;23928;47.562;7.508;2022-11-15T08:20:28;16.80;;;9.73;;
38117;SDS011;23928;47.562;7.508;2022-11-15T08:22:55;14.73;;;10.50;;
38117;SDS011;23928;47.562;7.508;2022-11-15T08:25:21;16.90;;;10.23;;
38117;SDS011;23928;47.562;7.508;2022-11-15T08:27:50;13.37;;;10.57;;
38117;SDS011;23928;47.562;7.508;2022-11-15T08:30:16;13.80;;;10.30;;
38117;SDS011;23928;47.562;7.508;2022-11-15T08:32:42;15.03;;;10.70;;
38117;SDS011;23928;47.562;7.508;2022-11-15T08:35:08;13.57;;;10.63;;
38117;SDS011;23928;47.562;7.508;2022-11-15T08:37:33;15.50;;;11.07;;
38117;SDS011;23928;47.562;7.508;2022-11-15T08:39:59;16.03;;;10.63;;
38117;SDS011;23928;47.562;7.508;2022-11-15T08:42:25;16.37;;;11.60;;
38117;SDS011;23928;47.562;7.508;2022-11-15T08:44:50;14.13;;;11.27;;
38117;SDS011;23928;47.562;7.508;2022-11-15T08:47:16;18.53;;;11.60;;
38117;SDS011;23928;47.562;7.508;2022-11-15T08:49:42;15.43;;;11.87;;
38117;SDS011;23928;47.562;7.508;2022-11-15T08:52:07;14.80;;;12.00;;
38117;SDS011;23928;47.562;7.508;2022-11-15T08:54:33;15.93;;;10.73;;
38117;SDS011;23928;47.562;7.508;2022-11-15T08:56:58;15.60;;;11.63;;
38117;SDS011;23928;47.562;7.508;2022-11-15T08:59:24;16.60;;;11.80;;
38117;SDS011;23928;47.562;7.508;2022-11-15T09:01:49;16.70;;;12.07;;
38117;SDS011;23928;47.562;7.508;2022-11-15T09:04:15;15.77;;;11.27;;
38117;SDS011;23928;47.562;7.508;2022-11-15T09:06:41;17.53;;;11.73;;
38117;SDS011;23928;47.562;7.508;2022-11-15T09:09:07;15.47;;;11.40;;
38117;SDS011;23928;47.562;7.508;2022-11-15T09:11:32;14.13;;;10.63;;
38117;SDS011;23928;47.562;7.508;2022-11-15T09:13:58;13.77;;;10.73;;
38117;SDS011;23928;47.562;7.508;2022-11-15T09:16:24;15.23;;;10.53;;
38117;SDS011;23928;47.562;7.508;2022-11-15T09:18:49;17.43;;;9.70;;
38117;SDS011;23928;47.562;7.508;2022-11-15T09:21:15;15.07;;;9.50;;
38117;SDS011;23928;47.562;7.508;2022-11-15T09:23:40;13.57;;;9.80;;
38117;SDS011;23928;47.562;7.508;2022-11-15T09:26:06;12.00;;;9.40;;
38117;SDS011;23928;47.562;7.508;2022-11-15T09:28:32;13.20;;;9.63;;
38117;SDS011;23928;47.562;7.508;2022-11-15T09:30:59;12.63;;;9.67;;
38117;SDS011;23928;47.562;7.508;2022-11-15T09:33:27;14.37;;;8.83;;
38117;SDS011;23928;47.562;7.508;2022-11-15T09:35:53;14.20;;;10.33;;
38117;SDS011;23928;47.562;7.508;2022-11-15T09:38:19;13.60;;;10.10;;
38117;SDS011;23928;47.562;7.508;2022-11-15T09:40:46;14.77;;;9.17;;
38117;SDS011;23928;47.562;7.508;2022-11-15T09:46:01;13.57;;;9.97;;
38117;SDS011;23928;47.562;7.508;2022-11-15T09:51:13;13.13;;;9.90;;
38117;SDS011;23928;47.562;7.508;2022-11-15T09:53:49;12.97;;;9.60;;
38117;SDS011;23928;47.562;7.508;2022-11-15T09:58:50;12.53;;;9.63;;
38117;SDS011;23928;47.562;7.508;2022-11-15T10:01:34;11.47;;;9.00;;
38117;SDS011;23928;47.562;7.508;2022-11-15T10:04:20;16.73;;;9.13;;
38117;SDS011;23928;47.562;7.508;2022-11-15T10:07:02;12.97;;;8.47;;
38117;SDS011;23928;47.562;7.508;2022-11-15T10:12:28;12.77;;;9.67;;
38117;SDS011;23928;47.562;7.508;2022-11-15T10:15:05;12.10;;;9.50;;
38117;SDS011;23928;47.562;7.508;2022-11-15T10:17:46;14.63;;;9.53;;
38117;SDS011;23928;47.562;7.508;2022-11-15T10:20:46;13.60;;;9.17;;
38117;SDS011;23928;47.562;7.508;2022-11-15T10:23:14;15.57;;;9.30;;
38117;SDS011;23928;47.562;7.508;2022-11-15T10:25:44;12.60;;;9.43;;
38117;SDS011;23928;47.562;7.508;2022-11-15T10:28:13;12.53;;;9.13;;
38117;SDS011;23928;47.562;7.508;2022-11-15T10:30:53;16.90;;;9.17;;
38117;SDS011;23928;47.562;7.508;2022-11-15T10:33:23;14.87;;;8.80;;
38117;SDS011;23928;47.562;7.508;2022-11-15T10:41:13;12.33;;;9.30;;
38117;SDS011;23928;47.562;7.508;2022-11-15T10:43:44;12.23;;;8.67;;
38117;SDS011;23928;47.562;7.508;2022-11-15T10:46:19;12.37;;;8.90;;
38117;SDS011;23928;47.562;7.508;2022-11-15T10:48:48;14.83;;;8.80;;
38117;SDS011;23928;47.562;7.508;2022-11-15T10:51:27;13.13;;;9.73;;
38117;SDS011;23928;47.562;7.508;2022-11-15T10:53:54;11.97;;;8.57;;
38117;SDS011;23928;47.562;7.508;2022-11-15T10:56:22;13.40;;;9.07;;
38117;SDS011;23928;47.562;7.508;2022-11-15T10:58:51;12.77;;;8.87;;
38117;SDS011;23928;47.562;7.508;2022-11-15T11:01:19;12.97;;;8.97;;
38117;SDS011;23928;47.562;7.508;2022-11-15T11:09:21;11.97;;;8.40;;
38117;SDS011;23928;47.562;7.508;2022-11-15T11:12:01;11.67;;;8.23;;
38117;SDS011;23928;47.562;7.508;2022-11-15T11:14:34;12.53;;;8.07;;
38117;SDS011;23928;47.562;7.508;2022-11-15T11:19:55;11.80;;;7.33;;
38117;SDS011;23928;47.562;7.508;2022-11-15T11:39:19;11.67;;;7.73;;
38117;SDS011;23928;47.562;7.508;2022-11-15T11:41:57;11.23;;;7.67;;
38117;SDS011;23928;47.562;7.508;2022-11-15T11:47:19;10.47;;;7.40;;
38117;SDS011;23928;47.562;7.508;2022-11-15T11:49:52;9.20;;;7.33;;
38117;SDS011;23928;47.562;7.508;2022-11-15T11:55:03;10.83;;;7.20;;
38117;SDS011;23928;47.562;7.508;2022-11-15T11:57:49;9.10;;;7.30;;
38117;SDS011;23928;47.562;7.508;2022-11-15T12:13:58;7.77;;;5.43;;
38117;SDS011;23928;47.562;7.508;2022-11-15T12:16:27;8.80;;;6.27;;
38117;SDS011;23928;47.562;7.508;2022-11-15T12:18:54;7.40;;;6.03;;
38117;SDS011;23928;47.562;7.508;2022-11-15T12:24:08;7.60;;;6.00;;
38117;SDS011;23928;47.562;7.508;2022-11-15T12:26:51;7.57;;;5.90;;
38117;SDS011;23928;47.562;7.508;2022-11-15T12:31:52;7.93;;;5.77;;
38117;SDS011;23928;47.562;7.508;2022-11-15T12:36:48;8.33;;;5.60;;
38117;SDS011;23928;47.562;7.508;2022-11-15T12:39:15;8.93;;;6.23;;
38117;SDS011;23928;47.562;7.508;2022-11-15T12:41:42;8.57;;;6.00;;
38117;SDS011;23928;47.562;7.508;2022-11-15T12:47:04;10.10;;;5.33;;
38117;SDS011;23928;47.562;7.508;2022-11-15T12:49:47;8.23;;;6.07;;
38117;SDS011;23928;47.562;7.508;2022-11-15T12:52:13;9.47;;;5.97;;
38117;SDS011;23928;47.562;7.508;2022-11-15T13:02:30;7.17;;;5.27;;
38117;SDS011;23928;47.562;7.508;2022-11-15T13:18:39;7.30;;;5.07;;
38117;SDS011;23928;47.562;7.508;2022-11-15T13:20:51;5.37;;;4.87;;
38117;SDS011;23928;47.562;7.508;2022-11-15T13:23:16;7.77;;;5.13;;
38117;SDS011;23928;47.562;7.508;2022-11-15T13:28:36;9.53;;;5.50;;
38117;SDS011;23928;47.562;7.508;2022-11-15T13:34:00;7.80;;;5.37;;
38117;SDS011;23928;47.562;7.508;2022-11-15T13:36:29;7.40;;;5.03;;
38117;SDS011;23928;47.562;7.508;2022-11-15T13:39:06;6.13;;;5.47;;
38117;SDS011;23928;47.562;7.508;2022-11-15T13:41:49;7.60;;;5.27;;
38117;SDS011;23928;47.562;7.508;2022-11-15T13:44:20;6.07;;;4.70;;
38117;SDS011;23928;47.562;7.508;2022-11-15T13:46:47;7.97;;;4.97;;
38117;SDS011;23928;47.562;7.508;2022-11-15T13:49:13;7.07;;;4.60;;
38117;SDS011;23928;47.562;7.508;2022-11-15T13:51:49;6.53;;;4.90;;
38117;SDS011;23928;47.562;7.508;2022-11-15T13:59:51;5.57;;;4.17;;
38117;SDS011;23928;47.562;7.508;2022-11-15T14:02:30;7.40;;;4.50;;
38117;SDS011;23928;47.562;7.508;2022-11-15T14:05:16;7.67;;;4.80;;
38117;SDS011;23928;47.562;7.508;2022-11-15T14:10:36;6.63;;;4.17;;
38117;SDS011;23928;47.562;7.508;2022-11-15T14:13:03;6.53;;;3.90;;
38117;SDS011;23928;47.562;7.508;2022-11-15T14:15:34;4.77;;;4.20;;
38117;SDS011;23928;47.562;7.508;2022-11-15T14:18:02;5.53;;;3.93;;
38117;SDS011;23928;47.562;7.508;2022-11-15T14:23:01;4.83;;;3.73;;
38117;SDS011;23928;47.562;7.508;2022-11-15T14:25:29;4.07;;;3.67;;
38117;SDS011;23928;47.562;7.508;2022-11-15T14:28:12;5.80;;;4.33;;
38117;SDS011;23928;47.562;7.508;2022-11-15T14:30:55;7.03;;;4.80;;
38117;SDS011;23928;47.562;7.508;2022-11-15T14:38:37;6.67;;;5.37;;
38117;SDS011;23928;47.562;7.508;2022-11-15T14:41:03;7.97;;;5.10;;
38117;SDS011;23928;47.562;7.508;2022-11-15T14:43:28;7.10;;;5.10;;
38117;SDS011;23928;47.562;7.508;2022-11-15T14:45:54;7.53;;;5.20;;
38117;SDS011;23928;47.562;7.508;2022-11-15T14:48:20;8.00;;;5.80;;
38117;SDS011;23928;47.562;7.508;2022-11-15T14:50:47;6.57;;;5.17;;
38117;SDS011;23928;47.562;7.508;2022-11-15T14:53:16;8.50;;;6.20;;
38117;SDS011;23928;47.562;7.508;2022-11-15T14:55:43;7.13;;;5.40;;
38117;SDS011;23928;47.562;7.508;2022-11-15T14:58:08;8.37;;;5.30;;
38117;SDS011;23928;47.562;7.508;2022-11-15T15:00:35;7.50;;;5.00;;
38117;SDS011;23928;47.562;7.508;2022-11-15T15:03:03;6.30;;;5.00;;
38117;SDS011;23928;47.562;7.508;2022-11-15T15:05:36;6.50;;;4.93;;
38117;SDS011;23928;47.562;7.508;2022-11-15T15:08:04;6.83;;;5.00;;
38117;SDS011;23928;47.562;7.508;2022-11-15T15:10:35;8.10;;;5.30;;
38117;SDS011;23928;47.562;7.508;2022-11-15T15:13:03;5.67;;;4.13;;
38117;SDS011;23928;47.562;7.508;2022-11-15T15:15:33;7.03;;;4.60;;
38117;SDS011;23928;47.562;7.508;2022-11-15T15:18:00;6.70;;;4.50;;
38117;SDS011;23928;47.562;7.508;2022-11-15T15:20:26;6.20;;;4.50;;
38117;SDS011;23928;47.562;7.508;2022-11-15T15:22:53;7.57;;;4.37;;
38117;SDS011;23928;47.562;7.508;2022-11-15T15:27:46;4.70;;;4.17;;
38117;SDS011;23928;47.562;7.508;2022-11-15T15:30:12;6.03;;;4.30;;
38117;SDS011;23928;47.562;7.508;2022-11-15T15:32:37;5.57;;;4.63;;
38117;SDS011;23928;47.562;7.508;2022-11-15T15:35:03;10.03;;;4.90;;
38117;SDS011;23928;47.562;7.508;2022-11-15T15:37:29;7.67;;;5.03;;
38117;SDS011;23928;47.562;7.508;2022-11-15T15:39:57;6.83;;;5.60;;
38117;SDS011;23928;47.562;7.508;2022-11-15T15:42:23;11.53;;;5.63;;
38117;SDS011;23928;47.562;7.508;2022-11-15T15:44:49;5.80;;;4.67;;
38117;SDS011;23928;47.562;7.508;2022-11-15T15:47:16;6.47;;;5.20;;
38117;SDS011;23928;47.562;7.508;2022-11-15T15:49:44;8.90;;;5.47;;
38117;SDS011;23928;47.562;7.508;2022-11-15T15:52:10;7.63;;;5.27;;
38117;SDS011;23928;47.562;7.508;2022-11-15T15:54:36;8.53;;;5.33;;
38117;SDS011;23928;47.562;7.508;2022-11-15T15:57:02;6.43;;;5.00;;
38117;SDS011;23928;47.562;7.508;2022-11-15T15:59:28;6.30;;;5.17;;
38117;SDS011;23928;47.562;7.508;2022-11-15T16:01:54;8.53;;;5.40;;
38117;SDS011;23928;47.562;7.508;2022-11-15T16:04:19;7.90;;;6.30;;
38117;SDS011;23928;47.562;7.508;2022-11-15T16:06:45;7.13;;;5.03;;
38117;SDS011;23928;47.562;7.508;2022-11-15T16:09:12;6.53;;;5.57;;
38117;SDS011;23928;47.562;7.508;2022-11-15T16:11:40;6.83;;;5.07;;
38117;SDS011;23928;47.562;7.508;2022-11-15T16:14:06;6.97;;;4.93;;
38117;SDS011;23928;47.562;7.508;2022-11-15T16:16:33;6.90;;;5.00;;
38117;SDS011;23928;47.562;7.508;2022-11-15T16:19:00;7.67;;;5.50;;
38117;SDS011;23928;47.562;7.508;2022-11-15T16:21:26;8.47;;;5.57;;
38117;SDS011;23928;47.562;7.508;2022-11-15T16:23:52;7.93;;;6.20;;
38117;SDS011;23928;47.562;7.508;2022-11-15T16:26:22;8.97;;;6.20;;
38117;SDS011;23928;47.562;7.508;2022-11-15T16:28:51;8.60;;;5.87;;
38117;SDS011;23928;47.562;7.508;2022-11-15T16:31:17;8.03;;;4.90;;
38117;SDS011;23928;47.562;7.508;2022-11-15T16:33:45;8.27;;;5.60;;
38117;SDS011;23928;47.562;7.508;2022-11-15T16:36:21;8.07;;;5.17;;
38117;SDS011;23928;47.562;7.508;2022-11-15T16:38:48;6.97;;;5.23;;
38117;SDS011;23928;47.562;7.508;2022-11-15T16:41:14;11.83;;;6.23;;
38117;SDS011;23928;47.562;7.508;2022-11-15T16:43:43;6.87;;;5.63;;
38117;SDS011;23928;47.562;7.508;2022-11-15T16:46:18;7.73;;;5.67;;
38117;SDS011;23928;47.562;7.508;2022-11-15T16:48:47;6.73;;;5.50;;
38117;SDS011;23928;47.562;7.508;2022-11-15T16:51:13;8.60;;;6.03;;
38117;SDS011;23928;47.562;7.508;2022-11-15T16:53:40;6.30;;;5.23;;
38117;SDS011;23928;47.562;7.508;2022-11-15T16:56:14;8.67;;;5.80;;
38117;SDS011;23928;47.562;7.508;2022-11-15T16:58:50;8.97;;;5.93;;
38117;SDS011;23928;47.562;7.508;2022-11-15T17:01:20;8.07;;;5.90;;
38117;SDS011;23928;47.562;7.508;2022-11-15T17:03:48;6.07;;;5.43;;
38117;SDS011;23928;47.562;7.508;2022-11-15T17:06:13;6.97;;;4.63;;
38117;SDS011;23928;47.562;7.508;2022-11-15T17:08:39;8.77;;;6.13;;
38117;SDS011;23928;47.562;7.508;2022-11-15T17:11:06;8.67;;;5.70;;
38117;SDS011;23928;47.562;7.508;2022-11-15T17:13:32;12.70;;;5.97;;
38117;SDS011;23928;47.562;7.508;2022-11-15T17:16:02;9.50;;;6.50;;
38117;SDS011;23928;47.562;7.508;2022-11-15T17:18:28;8.13;;;6.43;;
38117;SDS011;23928;47.562;7.508;2022-11-15T17:20:54;8.53;;;6.30;;